Woodburn, Illinois
Current Conditions -  °F | °C
As of 3:55 AM on Saturday 25 Oct 2014 (Local Time) from KALN Reporting Station
Overcast Overcast  
Wind Chill: 59°   Ceiling: 3900
Heat Index: 59°   Visibility: 10mi
Dew Point: 55°   Wind: 3mph
Humidity: 87%   Direction: 220°SW
Pressure: 29.98"   Gusts: NA
Location:  39.0426°N, 89.979°W
Report Text: KALN 250855Z AUTO 22003KT 10SM OVC039 15/13 A2998 RMK AO2 T01480126
Loading
Personal Weather Stations






























Interactive Weather Map
Tropical Storm Tracking
New forecast layout! Learn more

10-Day Weather Forecast

Advertisements
Track Severe Weather on mobile